Belfast, New York
Current Conditions -  °F | °C
As of 10:35 PM on Sunday 21 Dec 2014 (Local Time) from KOLE Reporting Station
Overcast Overcast  
Wind Chill: -8°   Ceiling: 600
Heat Index: -5°   Visibility: 10mi
Dew Point: -5°   Wind: 5mph
Humidity: 100%   Direction: 130°SE
Pressure: 30.2"   Gusts: NA
Location:  42.34°N, 78.11°W
Report Text: KOLE 220335Z AUTO 13004KT 10SM OVC006 M05/M05 A3020 RMK AO2
Loading
Personal Weather Stations






























Interactive Weather Map New forecast layout! Learn more

10-Day Weather Forecast

Advertisements
Track Severe Weather on mobile